Time;durP1;ratioP1;P1;durP2;ratioP2;P2;SDS_P1;SDS_P2;PMS_P1;PMS_P2;Temp;Humidity;BMP_temperature;BMP_pressure;BME280_temperature;BME280_humidity;BME280_pressure;Samples;Min_cycle;Max_cycle;Signal;HPM_P1;HPM_P2
2022/02/28 00:01:51;;;;;;;10.20;9.50;;;2.70;99.90;;;;;;5013835;28;20168;-67
2022/02/28 00:04:18;;;;;;;9.73;9.07;;;2.70;99.90;;;;;;5013041;28;20176;-67
2022/02/28 00:06:44;;;;;;;10.13;9.33;;;2.70;99.90;;;;;;5013557;28;20230;-66
2022/02/28 00:09:09;;;;;;;10.30;9.50;;;2.60;99.90;;;;;;5013144;28;20203;-66
2022/02/28 00:11:35;;;;;;;9.63;8.87;;;2.60;99.90;;;;;;5013366;28;20172;-66
2022/02/28 00:14:01;;;;;;;9.37;8.67;;;2.50;99.90;;;;;;5012848;28;20214;-66
2022/02/28 00:16:26;;;;;;;10.13;9.13;;;2.40;99.90;;;;;;5013219;28;20649;-66
2022/02/28 00:18:52;;;;;;;9.27;8.73;;;2.40;99.90;;;;;;5011616;28;20216;-68
2022/02/28 00:21:17;;;;;;;9.07;8.43;;;2.40;99.90;;;;;;5013002;28;20160;-68
2022/02/28 00:23:43;;;;;;;8.90;8.30;;;2.40;99.90;;;;;;5012746;28;20191;-67
2022/02/28 00:26:09;;;;;;;9.87;8.40;;;2.30;99.90;;;;;;5013180;28;20172;-67
2022/02/28 00:28:34;;;;;;;9.57;8.87;;;2.30;99.90;;;;;;5012790;28;20204;-68
2022/02/28 00:31:00;;;;;;;9.07;8.40;;;2.20;99.90;;;;;;5013035;28;20251;-67
2022/02/28 00:33:26;;;;;;;8.97;8.33;;;2.20;99.90;;;;;;5012387;28;20219;-67
2022/02/28 00:35:51;;;;;;;9.63;8.83;;;2.20;99.90;;;;;;5013205;28;20234;-67
2022/02/28 00:38:17;;;;;;;9.43;8.73;;;2.20;99.90;;;;;;5011274;28;20215;-67
2022/02/28 00:40:43;;;;;;;9.27;8.43;;;2.20;99.90;;;;;;5012874;28;20187;-68
2022/02/28 00:43:09;;;;;;;9.17;8.50;;;2.20;99.90;;;;;;5011023;28;20642;-68
2022/02/28 00:45:35;;;;;;;9.33;8.43;;;2.20;99.90;;;;;;5012431;28;20672;-68
2022/02/28 00:48:01;;;;;;;9.87;8.80;;;2.10;99.90;;;;;;5012658;28;20199;-67
2022/02/28 00:50:27;;;;;;;9.57;8.73;;;2.10;99.90;;;;;;5012395;28;20649;-67
2022/02/28 00:52:52;;;;;;;10.33;9.20;;;2.10;99.90;;;;;;5010993;28;20172;-67
2022/02/28 00:55:18;;;;;;;9.87;8.97;;;2.10;99.90;;;;;;5011352;28;20664;-67
2022/02/28 00:57:44;;;;;;;9.13;8.33;;;2.10;99.90;;;;;;5012438;28;20266;-67
2022/02/28 01:00:12;;;;;;;9.87;8.77;;;2.10;99.90;;;;;;5012513;28;20737;-67
2022/02/28 01:02:39;;;;;;;9.97;9.13;;;2.10;99.90;;;;;;5012086;28;20169;-67
2022/02/28 01:05:05;;;;;;;10.00;9.30;;;2.10;99.90;;;;;;5012579;28;20243;-67
2022/02/28 01:07:31;;;;;;;9.23;8.63;;;2.10;99.90;;;;;;5011997;28;20191;-67
2022/02/28 01:09:57;;;;;;;9.70;8.90;;;2.10;99.90;;;;;;5012436;28;20580;-68
2022/02/28 01:12:22;;;;;;;9.87;8.93;;;2.10;99.90;;;;;;5012162;28;20266;-67
2022/02/28 01:14:48;;;;;;;9.50;8.70;;;2.10;99.90;;;;;;5012050;28;20541;-66
2022/02/28 01:17:15;;;;;;;9.87;8.97;;;2.10;99.90;;;;;;5012004;28;20176;-66
2022/02/28 01:19:41;;;;;;;9.97;9.30;;;2.10;99.90;;;;;;5011975;28;20199;-66
2022/02/28 01:22:09;;;;;;;10.63;9.83;;;2.00;99.90;;;;;;5011947;28;20172;-67
2022/02/28 01:24:39;;;;;;;10.23;9.33;;;2.00;99.90;;;;;;5012041;28;20168;-67
2022/02/28 01:27:05;;;;;;;9.33;8.57;;;2.00;99.90;;;;;;5011845;28;20176;-67
2022/02/28 01:29:30;;;;;;;10.47;9.63;;;1.90;99.90;;;;;;5011235;28;20196;-66
2022/02/28 01:31:56;;;;;;;10.13;9.33;;;1.90;99.90;;;;;;5011727;28;20183;-68
2022/02/28 01:34:22;;;;;;;10.07;9.37;;;1.90;99.90;;;;;;5010398;28;20207;-68
2022/02/28 01:36:48;;;;;;;10.10;9.20;;;1.80;99.90;;;;;;5011636;28;20183;-68
2022/02/28 01:39:14;;;;;;;10.87;9.87;;;1.80;99.90;;;;;;5011259;28;20212;-68
2022/02/28 01:41:40;;;;;;;10.47;9.67;;;1.80;99.90;;;;;;5011956;28;20180;-67
2022/02/28 01:44:07;;;;;;;10.07;9.03;;;1.80;99.90;;;;;;5011857;28;20195;-67
2022/02/28 01:46:33;;;;;;;10.07;9.17;;;1.70;99.90;;;;;;5011384;28;20176;-67
2022/02/28 01:48:58;;;;;;;9.93;9.03;;;1.70;99.90;;;;;;5011650;28;20192;-67
2022/02/28 01:51:25;;;;;;;10.60;9.57;;;1.70;99.90;;;;;;5010161;28;20641;-68
2022/02/28 01:53:51;;;;;;;10.70;9.70;;;1.70;99.90;;;;;;5011537;28;20318;-68
2022/02/28 01:56:16;;;;;;;10.13;9.13;;;1.70;99.90;;;;;;5011486;28;20263;-68
2022/02/28 01:58:42;;;;;;;9.47;8.67;;;1.70;99.90;;;;;;5011493;28;20245;-67
2022/02/28 02:01:08;;;;;;;10.63;9.67;;;1.60;99.90;;;;;;5011453;28;20184;-68
2022/02/28 02:03:33;;;;;;;9.70;8.80;;;1.60;99.90;;;;;;5011006;28;20176;-67
2022/02/28 02:06:00;;;;;;;9.83;9.10;;;1.50;99.90;;;;;;5011669;28;20227;-67
2022/02/28 02:08:26;;;;;;;9.40;8.70;;;1.50;99.90;;;;;;5011568;28;20209;-67
2022/02/28 02:10:52;;;;;;;10.30;9.50;;;1.50;99.90;;;;;;5011428;28;20199;-65
2022/02/28 02:13:19;;;;;;;10.10;9.37;;;1.40;99.90;;;;;;5010871;28;20708;-67
2022/02/28 02:15:46;;;;;;;11.00;9.77;;;1.40;99.90;;;;;;5011580;28;20243;-68
2022/02/28 02:18:12;;;;;;;10.73;9.93;;;1.40;99.90;;;;;;5010883;28;20223;-67
2022/02/28 02:20:39;;;;;;;11.37;10.30;;;1.40;99.90;;;;;;5011326;28;20383;-68
2022/02/28 02:23:10;;;;;;;10.67;9.87;;;1.40;99.90;;;;;;5011137;28;20234;-67
2022/02/28 02:25:37;;;;;;;10.93;9.87;;;1.40;99.90;;;;;;5010070;28;20176;-68
2022/02/28 02:28:05;;;;;;;11.33;10.57;;;1.40;99.90;;;;;;5011375;28;20196;-67
2022/02/28 02:30:31;;;;;;;10.60;9.67;;;1.30;99.90;;;;;;5011180;28;20180;-67
2022/02/28 02:32:56;;;;;;;10.53;9.70;;;1.30;99.90;;;;;;5011048;28;20218;-67
2022/02/28 02:35:22;;;;;;;10.10;9.10;;;1.30;99.90;;;;;;5010892;28;20646;-68
2022/02/28 02:37:48;;;;;;;10.07;9.37;;;1.40;99.90;;;;;;5011806;28;20169;-69
2022/02/28 02:40:14;;;;;;;11.00;9.97;;;1.30;99.90;;;;;;5011332;28;20207;-67
2022/02/28 02:42:40;;;;;;;11.13;10.13;;;1.30;99.90;;;;;;5013517;28;20226;-67
2022/02/28 02:45:06;;;;;;;10.47;9.57;;;1.20;99.90;;;;;;5013488;28;20649;-66
2022/02/28 02:47:32;;;;;;;10.87;10.07;;;1.20;99.90;;;;;;5014699;28;20176;-66
2022/02/28 02:49:58;;;;;;;11.13;10.03;;;1.10;99.90;;;;;;5014557;28;20172;-66
2022/02/28 02:52:23;;;;;;;11.60;10.57;;;1.10;99.90;;;;;;5014499;28;20177;-66
2022/02/28 02:54:49;;;;;;;11.40;10.40;;;1.10;99.90;;;;;;5014815;28;20182;-67
2022/02/28 02:57:16;;;;;;;12.10;10.90;;;1.00;99.90;;;;;;5013405;28;20180;-66
2022/02/28 02:59:42;;;;;;;12.53;11.40;;;1.00;99.90;;;;;;5014179;28;20207;-67
2022/02/28 03:02:08;;;;;;;12.43;11.40;;;0.90;99.90;;;;;;5015158;28;20176;-67
2022/02/28 03:04:33;;;;;;;12.30;11.30;;;0.90;99.90;;;;;;5017103;28;20270;-67
2022/02/28 03:06:59;;;;;;;11.90;11.07;;;0.80;99.90;;;;;;5015760;28;20176;-65
2022/02/28 03:09:24;;;;;;;11.63;10.57;;;0.70;99.90;;;;;;5014178;28;20696;-66
2022/02/28 03:11:50;;;;;;;11.80;11.00;;;0.70;99.90;;;;;;5012928;28;20724;-69
2022/02/28 03:14:15;;;;;;;13.60;12.40;;;0.60;99.90;;;;;;5014140;28;20172;-66
2022/02/28 03:16:41;;;;;;;14.33;13.13;;;0.50;99.90;;;;;;5014234;28;20180;-66
2022/02/28 03:19:07;;;;;;;16.20;14.90;;;0.50;99.90;;;;;;5014140;28;20196;-67
2022/02/28 03:21:32;;;;;;;13.07;12.23;;;0.40;99.90;;;;;;5013747;28;20234;-66
2022/02/28 03:23:58;;;;;;;13.57;12.43;;;0.30;99.90;;;;;;5013709;28;20183;-66
2022/02/28 03:26:24;;;;;;;14.07;12.63;;;0.40;99.90;;;;;;5014234;28;20168;-67
2022/02/28 03:28:50;;;;;;;21.17;14.87;;;0.30;99.90;;;;;;5012679;28;20485;-68
2022/02/28 03:31:16;;;;;;;17.03;14.63;;;0.30;99.90;;;;;;5014089;28;20172;-66
2022/02/28 03:33:42;;;;;;;15.53;13.37;;;0.20;99.90;;;;;;5013839;28;20184;-67
2022/02/28 03:36:08;;;;;;;13.37;12.00;;;0.20;99.90;;;;;;5014106;28;20175;-66
2022/02/28 03:38:33;;;;;;;13.27;11.37;;;0.10;99.90;;;;;;5012026;28;20232;-66
2022/02/28 03:40:59;;;;;;;16.37;12.53;;;0.10;99.90;;;;;;5014000;28;20179;-67
2022/02/28 03:43:24;;;;;;;18.57;14.20;;;0.10;99.90;;;;;;5013477;28;20173;-66
2022/02/28 03:45:50;;;;;;;14.50;12.77;;;0.10;99.90;;;;;;5014067;28;20715;-66
2022/02/28 03:48:17;;;;;;;12.77;11.63;;;0.10;99.90;;;;;;5012466;28;20329;-66
2022/02/28 03:50:42;;;;;;;11.90;10.90;;;0.10;99.90;;;;;;5014118;28;20259;-66
2022/02/28 03:53:08;;;;;;;13.17;12.17;;;0.10;99.90;;;;;;5012943;28;20596;-66
2022/02/28 03:55:34;;;;;;;12.83;11.43;;;0.10;99.90;;;;;;5013750;28;20176;-67
2022/02/28 03:57:59;;;;;;;13.37;12.23;;;0.20;99.90;;;;;;5013521;28;20560;-66
2022/02/28 04:00:25;;;;;;;14.97;13.57;;;0.20;99.90;;;;;;5013139;28;20210;-66
2022/02/28 04:02:51;;;;;;;18.03;14.40;;;0.20;99.90;;;;;;5012345;28;20180;-66
2022/02/28 04:05:17;;;;;;;33.57;19.87;;;0.20;99.90;;;;;;5013676;28;20165;-66
2022/02/28 04:07:43;;;;;;;21.90;15.87;;;0.10;99.90;;;;;;5013422;28;20234;-66
2022/02/28 04:10:09;;;;;;;12.10;10.90;;;0.10;99.90;;;;;;5013522;28;20226;-67
2022/02/28 04:12:35;;;;;;;11.47;10.43;;;0.10;99.90;;;;;;5013067;28;20181;-67
2022/02/28 04:15:01;;;;;;;12.80;11.50;;;0.10;99.90;;;;;;5013319;28;20688;-66
2022/02/28 04:17:27;;;;;;;12.77;11.13;;;0.00;99.90;;;;;;5012974;28;20180;-66
2022/02/28 04:19:53;;;;;;;15.30;13.63;;;0.00;99.90;;;;;;5013427;28;20279;-65
2022/02/28 04:22:19;;;;;;;16.53;14.67;;;-0.10;99.90;;;;;;5012664;28;20263;-66
2022/02/28 04:24:45;;;;;;;21.47;15.63;;;-0.10;99.90;;;;;;5013286;28;20163;-66
2022/02/28 04:27:11;;;;;;;16.43;14.30;;;-0.20;99.90;;;;;;5012761;28;20227;-66
2022/02/28 04:29:37;;;;;;;13.97;12.70;;;-0.30;99.90;;;;;;5012994;28;20215;-66
2022/02/28 04:32:03;;;;;;;12.37;11.13;;;-0.30;99.90;;;;;;5012704;28;20195;-66
2022/02/28 04:34:29;;;;;;;11.73;10.63;;;-0.20;99.90;;;;;;5013026;28;20176;-66
2022/02/28 04:36:55;;;;;;;12.87;11.17;;;-0.20;99.90;;;;;;5013035;28;20180;-66
2022/02/28 04:39:20;;;;;;;12.00;10.90;;;-0.20;99.90;;;;;;5012074;28;20211;-67
2022/02/28 04:41:46;;;;;;;12.70;11.43;;;-0.20;99.90;;;;;;5013078;28;20168;-67
2022/02/28 04:44:12;;;;;;;11.70;10.57;;;-0.20;99.90;;;;;;5012217;28;20176;-66
2022/02/28 04:46:37;;;;;;;12.73;11.67;;;-0.20;99.90;;;;;;5012764;28;20192;-66
2022/02/28 04:49:03;;;;;;;11.93;10.80;;;-0.20;99.90;;;;;;5012708;28;20196;-66
2022/02/28 04:51:28;;;;;;;11.83;10.77;;;-0.20;99.90;;;;;;5012514;28;20688;-66
2022/02/28 04:53:54;;;;;;;11.80;10.70;;;-0.20;99.90;;;;;;5012361;28;20176;-66
2022/02/28 04:56:20;;;;;;;12.53;11.53;;;-0.10;99.90;;;;;;5012577;28;20634;-66
2022/02/28 04:58:46;;;;;;;12.90;11.60;;;-0.10;99.90;;;;;;5012151;28;20204;-66
2022/02/28 05:01:12;;;;;;;12.37;11.27;;;-0.10;99.90;;;;;;5011102;28;20198;-66
2022/02/28 05:03:38;;;;;;;11.80;10.70;;;0.00;99.90;;;;;;5011870;28;20183;-66
2022/02/28 05:06:03;;;;;;;12.60;11.53;;;0.00;99.90;;;;;;5010552;28;20172;-67
2022/02/28 05:08:29;;;;;;;12.73;11.63;;;0.00;99.90;;;;;;5012128;28;21023;-67
2022/02/28 05:10:55;;;;;;;12.23;11.13;;;0.00;99.90;;;;;;5012474;28;20196;-67
2022/02/28 05:13:20;;;;;;;12.73;11.43;;;0.00;99.90;;;;;;5011868;28;20241;-66
2022/02/28 05:15:46;;;;;;;12.97;11.80;;;0.10;99.90;;;;;;5012183;28;20258;-66
2022/02/28 05:18:12;;;;;;;12.40;11.47;;;0.10;99.90;;;;;;5012213;28;20560;-66
2022/02/28 05:20:37;;;;;;;11.87;10.97;;;0.10;99.90;;;;;;5012059;28;20784;-67
2022/02/28 05:23:03;;;;;;;11.90;11.00;;;0.10;99.90;;;;;;5012112;28;20247;-68
2022/02/28 05:25:28;;;;;;;12.50;11.37;;;0.10;99.90;;;;;;5011358;28;20176;-66
2022/02/28 05:27:54;;;;;;;12.57;11.53;;;0.10;99.90;;;;;;5012314;28;20195;-66
2022/02/28 05:30:20;;;;;;;12.43;11.20;;;0.20;99.90;;;;;;5011926;28;20197;-68
2022/02/28 05:32:45;;;;;;;13.10;11.70;;;0.20;99.90;;;;;;5011846;28;20172;-66
2022/02/28 05:35:12;;;;;;;13.60;12.50;;;0.10;99.90;;;;;;5011758;28;20188;-67
2022/02/28 05:37:39;;;;;;;13.07;12.07;;;0.10;99.90;;;;;;5011534;28;20176;-67
2022/02/28 05:40:07;;;;;;;13.47;12.33;;;0.10;99.90;;;;;;5012032;28;20598;-66
2022/02/28 05:42:33;;;;;;;13.07;11.90;;;0.10;99.90;;;;;;5011732;28;20545;-67
2022/02/28 05:44:59;;;;;;;13.73;12.53;;;0.10;99.90;;;;;;5011921;28;20168;-66
2022/02/28 05:47:25;;;;;;;13.47;12.37;;;0.10;99.90;;;;;;5011965;28;20227;-67
2022/02/28 05:49:51;;;;;;;13.50;12.40;;;0.00;99.90;;;;;;5011740;28;20228;-67
2022/02/28 05:52:16;;;;;;;14.60;13.10;;;0.00;99.90;;;;;;5011637;28;20593;-65
2022/02/28 05:54:42;;;;;;;13.37;12.03;;;0.00;99.90;;;;;;5011902;28;20641;-67
2022/02/28 05:57:07;;;;;;;14.83;11.63;;;0.00;99.90;;;;;;5012205;28;20201;-66
2022/02/28 05:59:33;;;;;;;12.83;11.83;;;0.00;99.90;;;;;;5011525;28;20242;-66
2022/02/28 06:01:59;;;;;;;13.13;12.07;;;0.00;99.90;;;;;;5011665;28;20218;-65
2022/02/28 06:04:25;;;;;;;13.80;12.47;;;0.00;99.90;;;;;;5011340;28;20176;-66
2022/02/28 06:06:51;;;;;;;13.73;12.53;;;0.00;99.90;;;;;;5011870;28;20167;-66
2022/02/28 06:09:17;;;;;;;13.57;12.27;;;0.00;99.90;;;;;;5010006;28;20275;-65
2022/02/28 06:11:43;;;;;;;13.57;12.10;;;0.00;99.90;;;;;;5011679;28;20259;-66
2022/02/28 06:14:09;;;;;;;14.50;12.53;;;0.00;99.90;;;;;;5011192;28;20254;-66
2022/02/28 06:16:34;;;;;;;11.97;11.07;;;0.10;99.90;;;;;;5012140;28;20283;-65
2022/02/28 06:19:00;;;;;;;13.30;12.30;;;0.10;99.90;;;;;;5015218;28;20212;-65
2022/02/28 06:21:26;;;;;;;13.43;12.10;;;0.10;99.90;;;;;;5015552;28;20180;-66
2022/02/28 06:23:52;;;;;;;13.47;12.27;;;0.20;99.90;;;;;;5013654;28;20178;-65
2022/02/28 06:26:19;;;;;;;13.97;12.67;;;0.10;99.90;;;;;;5015711;28;20180;-65
2022/02/28 06:28:45;;;;;;;13.77;12.77;;;0.10;99.90;;;;;;5015261;28;20666;-65
2022/02/28 06:31:11;;;;;;;14.67;13.43;;;0.20;99.90;;;;;;5015832;28;20190;-64
2022/02/28 06:33:36;;;;;;;14.00;12.90;;;0.20;99.90;;;;;;5015428;28;20709;-64
2022/02/28 06:36:02;;;;;;;15.23;12.67;;;0.20;99.90;;;;;;5015338;28;20176;-65
2022/02/28 06:38:28;;;;;;;14.50;13.30;;;0.20;99.90;;;;;;5014609;28;20755;-65
2022/02/28 06:40:54;;;;;;;13.97;12.67;;;0.20;99.90;;;;;;5015281;28;20172;-66
2022/02/28 06:43:21;;;;;;;14.17;12.97;;;0.20;99.90;;;;;;5014345;28;20554;-65
2022/02/28 06:45:48;;;;;;;14.30;13.20;;;0.30;99.90;;;;;;5013850;28;20169;-65
2022/02/28 06:48:14;;;;;;;15.23;13.73;;;0.30;99.90;;;;;;5012115;28;20228;-66
2022/02/28 06:50:40;;;;;;;15.13;13.00;;;0.40;99.90;;;;;;5014802;28;20177;-65
2022/02/28 06:53:06;;;;;;;14.77;13.27;;;0.40;99.90;;;;;;5014427;28;20184;-67
2022/02/28 06:55:32;;;;;;;13.73;12.27;;;0.50;99.90;;;;;;5014726;28;20173;-65
2022/02/28 06:57:57;;;;;;;13.50;12.17;;;0.50;99.90;;;;;;5013355;28;20533;-64
2022/02/28 07:00:23;;;;;;;13.97;12.43;;;0.60;99.90;;;;;;5014562;28;20211;-64
2022/02/28 07:02:49;;;;;;;13.47;12.17;;;0.60;99.90;;;;;;5014194;28;20180;-64
2022/02/28 07:05:14;;;;;;;12.90;11.70;;;0.70;99.90;;;;;;5014649;28;20246;-65
2022/02/28 07:07:40;;;;;;;14.03;12.63;;;0.80;99.90;;;;;;5014014;28;20540;-64
2022/02/28 07:10:09;;;;;;;14.17;12.77;;;0.80;99.90;;;;;;5014320;28;20172;-64
2022/02/28 07:12:34;;;;;;;14.40;13.13;;;0.90;99.90;;;;;;5013733;28;20185;-67
2022/02/28 07:15:01;;;;;;;12.83;11.53;;;1.00;99.90;;;;;;5014332;28;20188;-64
2022/02/28 07:17:27;;;;;;;12.90;11.80;;;1.00;99.90;;;;;;5012714;28;20203;-67
2022/02/28 07:19:53;;;;;;;12.80;11.70;;;1.00;99.90;;;;;;5013722;28;20199;-65
2022/02/28 07:22:19;;;;;;;13.53;12.23;;;1.10;99.90;;;;;;5013840;28;20250;-65
2022/02/28 07:24:44;;;;;;;12.93;11.70;;;1.10;99.90;;;;;;5013991;28;20218;-65
2022/02/28 07:27:10;;;;;;;11.27;10.30;;;1.40;99.90;;;;;;5013922;28;20176;-65
2022/02/28 07:29:35;;;;;;;10.70;9.83;;;1.70;99.90;;;;;;5013437;28;20203;-66
2022/02/28 07:32:02;;;;;;;11.77;10.60;;;2.20;99.90;;;;;;5013068;28;20271;-67
2022/02/28 07:34:28;;;;;;;11.83;10.93;;;2.80;99.90;;;;;;5013854;28;20183;-66
2022/02/28 07:36:53;;;;;;;11.30;10.23;;;3.40;99.90;;;;;;5013651;28;20654;-65
2022/02/28 07:39:20;;;;;;;11.47;9.90;;;3.80;99.90;;;;;;5011957;28;20211;-66
2022/02/28 07:41:46;;;;;;;14.83;10.80;;;4.20;99.90;;;;;;5013842;28;20160;-66
2022/02/28 07:44:13;;;;;;;11.90;10.70;;;4.50;99.90;;;;;;5011931;28;20654;-65
2022/02/28 07:46:39;;;;;;;10.47;9.57;;;4.70;99.90;;;;;;5013842;28;20175;-66
2022/02/28 07:49:04;;;;;;;10.93;9.40;;;5.00;99.90;;;;;;5013189;28;20200;-65
2022/02/28 07:51:30;;;;;;;10.57;9.67;;;5.40;99.90;;;;;;5013552;28;20191;-66
2022/02/28 07:53:56;;;;;;;11.17;10.03;;;5.80;99.90;;;;;;5012834;28;20645;-65
2022/02/28 07:56:22;;;;;;;10.83;9.80;;;6.20;99.90;;;;;;5013786;28;20192;-66
2022/02/28 07:58:48;;;;;;;10.03;9.13;;;6.50;99.90;;;;;;5013413;28;20247;-66
2022/02/28 08:01:13;;;;;;;11.00;10.10;;;6.90;99.90;;;;;;5013235;28;20176;-65
2022/02/28 08:03:39;;;;;;;10.17;9.27;;;7.10;99.90;;;;;;5012665;28;20188;-65
2022/02/28 08:06:05;;;;;;;12.83;10.03;;;7.30;99.90;;;;;;5013495;28;20172;-66
2022/02/28 08:08:30;;;;;;;10.30;9.40;;;7.40;99.90;;;;;;5012229;28;20204;-66
2022/02/28 08:10:56;;;;;;;11.30;9.57;;;7.50;99.90;;;;;;5012035;28;20263;-65
2022/02/28 08:13:21;;;;;;;10.40;9.47;;;7.50;99.90;;;;;;5012224;28;20227;-65
2022/02/28 08:15:47;;;;;;;10.30;9.40;;;7.60;99.90;;;;;;5012896;28;20540;-65
2022/02/28 08:18:13;;;;;;;10.93;9.87;;;7.60;99.90;;;;;;5013239;28;20199;-65
2022/02/28 08:20:39;;;;;;;11.27;10.10;;;7.60;99.90;;;;;;5013187;28;20204;-65
2022/02/28 08:23:06;;;;;;;10.87;9.87;;;7.70;99.90;;;;;;5012920;28;20214;-66
2022/02/28 08:25:32;;;;;;;12.10;9.93;;;7.70;99.90;;;;;;5013077;28;20169;-65
2022/02/28 08:27:58;;;;;;;11.03;10.00;;;7.70;99.90;;;;;;5013160;28;20199;-66
2022/02/28 08:30:23;;;;;;;10.43;9.57;;;7.70;99.90;;;;;;5013291;28;20184;-66
2022/02/28 08:32:49;;;;;;;9.93;9.13;;;7.90;99.90;;;;;;5010949;28;20534;-66
2022/02/28 08:35:18;;;;;;;8.97;8.27;;;8.20;99.90;;;;;;4993324;28;20176;-66
2022/02/28 08:37:44;;;;;;;11.00;9.47;;;8.40;99.90;;;;;;5008968;28;20542;-66
2022/02/28 08:40:10;;;;;;;9.77;8.73;;;8.50;99.90;;;;;;5013303;28;20242;-65
2022/02/28 08:42:36;;;;;;;10.80;9.77;;;8.60;99.90;;;;;;5012131;28;20654;-66
2022/02/28 08:45:03;;;;;;;10.63;9.73;;;8.60;99.90;;;;;;5012703;28;20179;-67
2022/02/28 08:47:30;;;;;;;11.90;10.67;;;8.60;99.90;;;;;;5012565;28;20168;-66
2022/02/28 08:49:55;;;;;;;10.37;9.47;;;8.80;99.90;;;;;;5011489;28;20184;-66
2022/02/28 08:52:21;;;;;;;10.40;9.57;;;8.90;99.90;;;;;;5011993;28;20183;-66
2022/02/28 08:54:47;;;;;;;10.10;8.83;;;8.90;99.90;;;;;;5012528;28;20168;-66
2022/02/28 08:57:12;;;;;;;11.57;9.50;;;9.10;99.90;;;;;;5012612;28;20172;-66
2022/02/28 08:59:38;;;;;;;9.33;8.43;;;9.30;99.90;;;;;;5011991;28;20281;-66
2022/02/28 09:02:04;;;;;;;9.57;8.67;;;9.40;99.90;;;;;;5012301;28;20200;-66
2022/02/28 09:04:30;;;;;;;9.67;8.77;;;9.60;99.90;;;;;;5012316;28;20168;-66
2022/02/28 09:06:58;;;;;;;10.13;9.13;;;9.70;99.90;;;;;;5011182;28;20242;-65
2022/02/28 09:09:25;;;;;;;9.90;8.90;;;9.80;99.90;;;;;;5012034;28;20192;-66
2022/02/28 09:11:51;;;;;;;9.93;9.07;;;9.90;99.90;;;;;;5012356;28;20520;-66
2022/02/28 09:14:17;;;;;;;10.43;8.87;;;9.90;99.90;;;;;;5011918;28;20180;-66
2022/02/28 09:16:42;;;;;;;9.93;9.03;;;9.80;99.90;;;;;;5012140;28;20725;-66
2022/02/28 09:19:08;;;;;;;10.40;9.40;;;9.90;99.90;;;;;;5012026;28;20203;-66
2022/02/28 09:21:33;;;;;;;10.10;9.20;;;10.00;99.90;;;;;;5010665;28;20175;-65
2022/02/28 09:23:59;;;;;;;10.40;9.27;;;10.10;99.90;;;;;;5011868;28;20267;-66
2022/02/28 09:26:25;;;;;;;9.63;8.83;;;10.10;99.90;;;;;;5010117;28;20686;-66
2022/02/28 09:28:50;;;;;;;9.67;8.80;;;10.20;99.90;;;;;;5012043;28;20211;-65
2022/02/28 09:31:16;;;;;;;9.67;8.87;;;10.10;99.90;;;;;;5011928;28;20211;-66
2022/02/28 09:33:42;;;;;;;10.10;9.20;;;10.10;99.90;;;;;;5011772;28;20231;-65
2022/02/28 09:36:07;;;;;;;9.57;8.77;;;10.10;99.90;;;;;;5010591;28;20531;-66
2022/02/28 09:38:34;;;;;;;10.70;9.63;;;10.00;99.90;;;;;;5011591;28;20207;-65
2022/02/28 09:41:02;;;;;;;10.70;9.67;;;10.00;99.90;;;;;;5011803;28;20267;-66
2022/02/28 09:43:27;;;;;;;10.67;9.60;;;10.10;99.90;;;;;;5011307;28;20176;-67
2022/02/28 09:45:54;;;;;;;9.83;8.93;;;10.20;99.90;;;;;;5011681;28;20169;-66
2022/02/28 09:48:20;;;;;;;9.70;8.80;;;10.30;99.90;;;;;;5011556;28;20191;-66
2022/02/28 09:50:46;;;;;;;9.17;8.27;;;10.50;99.90;;;;;;5010058;28;20172;-65
2022/02/28 09:53:12;;;;;;;9.47;8.27;;;10.30;99.90;;;;;;5011418;28;20539;-66
2022/02/28 09:55:37;;;;;;;10.53;9.57;;;10.20;99.90;;;;;;5011551;28;20176;-66
2022/02/28 09:58:03;;;;;;;10.47;9.47;;;10.20;99.90;;;;;;5010046;28;20295;-66
2022/02/28 10:00:29;;;;;;;10.60;9.30;;;10.30;99.90;;;;;;5011481;28;20207;-66
2022/02/28 10:02:56;;;;;;;11.10;10.07;;;10.60;99.90;;;;;;5011026;28;20650;-66
2022/02/28 10:05:26;;;;;;;10.63;9.50;;;10.70;99.90;;;;;;5011806;28;20176;-66
2022/02/28 10:07:54;;;;;;;10.93;9.83;;;10.90;99.90;;;;;;5011819;28;20188;-66
2022/02/28 10:10:20;;;;;;;10.57;9.57;;;11.00;99.90;;;;;;5011494;28;20180;-66
2022/02/28 10:12:47;;;;;;;10.20;9.20;;;11.10;99.90;;;;;;5011342;28;20177;-65
2022/02/28 10:15:16;;;;;;;12.03;9.60;;;11.20;99.90;;;;;;5011586;28;20221;-67
2022/02/28 10:18:03;;;;;;;10.10;8.93;;;11.30;99.80;;;;;;5010437;28;20251;-66
2022/02/28 10:20:38;;;;;;;11.37;10.17;;;11.50;99.90;;;;;;5008314;28;20677;-67
2022/02/28 10:23:09;;;;;;;12.23;8.93;;;11.60;98.80;;;;;;5011195;28;20254;-66
2022/02/28 10:25:40;;;;;;;10.10;9.20;;;11.60;99.40;;;;;;5011267;28;20183;-67
2022/02/28 10:28:20;;;;;;;10.93;9.83;;;11.70;99.50;;;;;;5011351;28;20195;-67
2022/02/28 10:30:53;;;;;;;10.37;8.67;;;11.80;99.30;;;;;;5009274;28;20259;-67
2022/02/28 10:33:19;;;;;;;10.63;9.63;;;12.00;98.00;;;;;;5010140;28;20634;-67
2022/02/28 10:36:01;;;;;;;10.27;9.37;;;12.20;99.30;;;;;;5011115;28;20191;-68
2022/02/28 10:38:28;;;;;;;10.33;9.37;;;12.40;97.80;;;;;;5011193;28;20212;-66
2022/02/28 10:40:55;;;;;;;11.37;9.70;;;12.50;96.40;;;;;;5011211;28;20262;-66
2022/02/28 10:43:33;;;;;;;10.13;9.10;;;12.60;97.20;;;;;;5010969;28;20187;-67
2022/02/28 10:46:16;;;;;;;10.50;9.50;;;12.40;95.50;;;;;;5011111;28;20247;-68
2022/02/28 10:49:15;;;;;;;11.53;9.17;;;12.30;95.30;;;;;;5010977;28;20192;-68
2022/02/28 10:51:45;;;;;;;10.27;9.37;;;12.20;95.30;;;;;;5007308;28;20196;-66
2022/02/28 10:54:20;;;;;;;9.77;8.77;;;12.20;95.10;;;;;;5010872;28;20525;-66
2022/02/28 10:56:48;;;;;;;9.93;8.90;;;12.30;95.20;;;;;;5011251;28;20176;-66
2022/02/28 10:59:15;;;;;;;10.80;8.80;;;12.30;94.30;;;;;;5010748;28;20290;-67
2022/02/28 11:01:41;;;;;;;10.20;9.27;;;12.40;94.00;;;;;;5009567;28;20177;-64
2022/02/28 11:04:10;;;;;;;9.73;8.83;;;12.50;94.30;;;;;;5013028;28;20556;-67
2022/02/28 11:06:36;;;;;;;10.83;9.10;;;12.40;92.90;;;;;;5014485;28;20179;-66
2022/02/28 11:09:04;;;;;;;10.03;9.13;;;12.10;92.50;;;;;;5013013;28;20207;-67
2022/02/28 11:11:30;;;;;;;10.33;9.33;;;12.00;92.60;;;;;;5014086;28;20576;-66
2022/02/28 11:13:56;;;;;;;11.23;10.13;;;12.00;92.70;;;;;;5012681;28;20180;-66
2022/02/28 11:16:21;;;;;;;9.93;8.73;;;12.00;92.20;;;;;;5014254;28;20245;-65
2022/02/28 11:18:47;;;;;;;9.83;8.93;;;11.80;92.80;;;;;;5014141;28;20212;-67
2022/02/28 11:21:14;;;;;;;9.87;8.97;;;11.70;92.00;;;;;;5014273;28;20614;-66
2022/02/28 11:23:41;;;;;;;11.77;9.20;;;11.60;92.30;;;;;;5013829;28;20175;-67
2022/02/28 11:26:07;;;;;;;9.90;9.00;;;11.70;92.90;;;;;;5014165;28;20258;-67
2022/02/28 11:28:33;;;;;;;10.67;8.47;;;12.00;93.10;;;;;;5013793;28;20255;-66
2022/02/28 11:31:03;;;;;;;10.40;9.43;;;12.20;91.00;;;;;;5013877;28;20187;-67
2022/02/28 11:33:29;;;;;;;10.37;9.27;;;12.20;92.10;;;;;;5013895;28;20172;-67
2022/02/28 11:35:55;;;;;;;9.67;8.77;;;12.60;93.30;;;;;;5012113;28;20194;-66
2022/02/28 11:38:23;;;;;;;11.40;8.77;;;12.90;92.50;;;;;;5013730;28;20212;-67
2022/02/28 11:40:57;;;;;;;9.00;8.20;;;13.10;92.70;;;;;;5013575;28;20203;-66
2022/02/28 11:43:24;;;;;;;10.07;9.17;;;13.20;91.20;;;;;;5013450;28;20207;-66
2022/02/28 11:46:13;;;;;;;9.87;8.87;;;13.20;91.30;;;;;;5013680;28;20188;-67
2022/02/28 11:48:50;;;;;;;11.30;9.07;;;13.20;91.20;;;;;;5013510;28;20203;-67
2022/02/28 11:51:24;;;;;;;10.17;9.17;;;13.20;90.60;;;;;;5013673;28;20172;-67
2022/02/28 11:53:54;;;;;;;9.50;8.57;;;13.10;90.10;;;;;;5011909;28;20191;-67
2022/02/28 11:56:22;;;;;;;10.30;9.30;;;13.00;89.60;;;;;;5013101;28;20181;-67
2022/02/28 11:58:58;;;;;;;9.87;8.97;;;13.00;90.30;;;;;;5011837;28;20209;-67
2022/02/28 12:01:27;;;;;;;12.27;9.30;;;13.00;88.50;;;;;;5013247;28;20192;-68
2022/02/28 12:04:15;;;;;;;9.60;8.67;;;13.20;90.90;;;;;;5013288;28;20202;-66
2022/02/28 12:07:02;;;;;;;9.57;8.63;;;13.30;89.30;;;;;;5011701;28;20184;-66
2022/02/28 12:09:35;;;;;;;9.97;8.80;;;13.50;89.10;;;;;;5011944;28;20210;-66
2022/02/28 12:12:27;;;;;;;9.53;8.53;;;13.50;87.00;;;;;;5011239;28;20176;-65
2022/02/28 12:14:55;;;;;;;10.47;9.43;;;13.50;87.20;;;;;;5012939;28;20181;-65
2022/02/28 12:17:31;;;;;;;9.70;8.63;;;13.50;86.90;;;;;;5013138;28;20180;-66
2022/02/28 12:20:28;;;;;;;11.63;8.67;;;13.50;85.60;;;;;;5013162;28;20290;-66
2022/02/28 12:22:58;;;;;;;9.53;8.80;;;13.50;87.40;;;;;;5005416;28;20219;-65
2022/02/28 12:25:57;;;;;;;9.40;8.60;;;13.30;86.00;;;;;;5013088;28;20654;-65
2022/02/28 12:28:27;;;;;;;10.23;7.93;;;13.40;88.70;;;;;;5013032;28;20196;-66
2022/02/28 12:31:00;;;;;;;9.90;9.00;;;13.40;88.30;;;;;;5011870;28;20682;-66
2022/02/28 12:33:34;;;;;;;8.73;7.87;;;13.50;86.20;;;;;;5012587;28;20630;-65
2022/02/28 12:36:08;;;;;;;8.90;8.17;;;13.60;86.00;;;;;;5013117;28;20187;-67
2022/02/28 12:38:42;;;;;;;9.10;8.23;;;13.60;83.90;;;;;;5009875;28;20277;-66
2022/02/28 12:41:08;;;;;;;9.80;8.83;;;13.50;85.80;;;;;;5012515;28;20183;-65